Time;durP1;ratioP1;P1;durP2;ratioP2;P2;SDS_P1;SDS_P2;PMS_P1;PMS_P2;Temp;Humidity;BMP_temperature;BMP_pressure;BME280_temperature;BME280_humidity;BME280_pressure;Samples;Min_cycle;Max_cycle;Signal;HPM_P1;HPM_P2
2021/08/26 00:01:11;;;;;;;15.82;10.65;;;19.20;94.40;;;;;;4256798;27;20269;-64
2021/08/26 00:05:50;;;;;;;14.93;11.43;;;19.30;94.10;;;;;;4256589;27;20047;-63
2021/08/26 00:07:53;;;;;;;14.80;10.82;;;19.00;94.90;;;;;;4256830;27;20354;-64
2021/08/26 00:09:56;;;;;;;12.10;10.52;;;19.00;94.90;;;;;;4256730;27;20353;-64
2021/08/26 00:11:59;;;;;;;16.83;11.85;;;19.00;95.20;;;;;;4256497;27;20335;-65
2021/08/26 00:14:02;;;;;;;15.02;10.77;;;18.90;95.20;;;;;;4256505;27;20251;-66
2021/08/26 00:16:07;;;;;;;18.27;12.15;;;18.90;95.20;;;;;;4238581;28;20093;-65
2021/08/26 00:18:10;;;;;;;15.18;11.40;;;18.80;95.70;;;;;;4256578;27;20337;-65
2021/08/26 00:20:13;;;;;;;15.27;10.52;;;18.80;95.70;;;;;;4256501;27;20051;-65
2021/08/26 00:22:17;;;;;;;17.30;11.77;;;18.80;95.50;;;;;;4256127;27;20076;-63
2021/08/26 00:24:20;;;;;;;16.75;11.77;;;18.70;96.10;;;;;;4256201;27;20051;-65
2021/08/26 00:26:23;;;;;;;15.75;11.15;;;18.70;95.90;;;;;;4256333;27;20051;-63
2021/08/26 00:28:26;;;;;;;16.92;11.63;;;18.70;96.20;;;;;;4256252;27;20055;-66
2021/08/26 00:30:29;;;;;;;14.73;10.73;;;18.70;96.10;;;;;;4255167;27;20055;-65
2021/08/26 00:32:33;;;;;;;18.55;11.38;;;18.70;96.00;;;;;;4255962;27;20044;-62
2021/08/26 00:34:36;;;;;;;16.77;11.23;;;18.60;96.20;;;;;;4256280;27;20064;-63
2021/08/26 00:36:39;;;;;;;13.15;10.75;;;18.60;96.30;;;;;;4256108;27;20051;-65
2021/08/26 00:38:42;;;;;;;13.70;9.98;;;18.60;96.20;;;;;;4256026;27;20397;-65
2021/08/26 00:40:45;;;;;;;14.27;10.57;;;18.60;96.20;;;;;;4255968;27;20130;-63
2021/08/26 00:42:48;;;;;;;13.40;9.60;;;18.50;96.30;;;;;;4237831;28;20144;-62
2021/08/26 00:44:51;;;;;;;15.73;10.02;;;18.60;96.00;;;;;;4255331;27;20051;-66
2021/08/26 00:46:54;;;;;;;17.48;10.00;;;18.50;96.10;;;;;;4235902;28;20062;-64
2021/08/26 00:48:59;;;;;;;14.13;9.20;;;18.60;95.90;;;;;;4255880;27;20050;-64
2021/08/26 00:51:02;;;;;;;12.68;8.55;;;18.60;95.90;;;;;;4256080;27;20307;-64
2021/08/26 00:53:05;;;;;;;16.10;9.05;;;18.60;95.90;;;;;;4255798;27;20391;-64
2021/08/26 00:55:09;;;;;;;15.93;9.25;;;18.60;95.70;;;;;;4256320;27;20050;-64
2021/08/26 00:57:12;;;;;;;13.48;9.32;;;18.60;95.70;;;;;;4256274;27;20081;-64
2021/08/26 00:59:15;;;;;;;11.85;9.07;;;18.50;96.10;;;;;;4255645;27;20096;-64
2021/08/26 01:01:21;;;;;;;13.23;8.70;;;18.50;96.00;;;;;;4255544;27;20051;-64
2021/08/26 01:03:34;;;;;;;13.63;8.02;;;18.50;95.80;;;;;;4255522;27;20043;-64
2021/08/26 01:05:47;;;;;;;12.45;8.10;;;18.40;96.20;;;;;;4233924;28;20487;-64
2021/08/26 01:07:55;;;;;;;10.18;7.35;;;18.30;96.30;;;;;;4254259;27;20092;-64
2021/08/26 01:10:02;;;;;;;11.13;7.97;;;18.50;96.00;;;;;;4255564;27;20047;-65
2021/08/26 01:12:08;;;;;;;10.65;7.78;;;18.50;95.80;;;;;;4255303;27;20080;-64
2021/08/26 01:14:12;;;;;;;11.95;8.18;;;18.30;96.40;;;;;;4255619;27;20099;-64
2021/08/26 01:16:15;;;;;;;15.57;7.18;;;18.20;96.70;;;;;;4257052;27;20058;-64
2021/08/26 01:18:18;;;;;;;16.70;7.95;;;18.30;96.20;;;;;;4256789;27;20285;-66
2021/08/26 01:20:22;;;;;;;12.88;7.75;;;18.40;95.80;;;;;;4255243;27;20051;-64
2021/08/26 01:22:28;;;;;;;10.18;7.25;;;18.50;95.70;;;;;;4255348;27;20384;-64
2021/08/26 01:24:33;;;;;;;8.55;6.70;;;18.60;95.30;;;;;;4255289;27;20358;-64
2021/08/26 01:26:41;;;;;;;8.15;6.88;;;18.60;95.40;;;;;;4255285;27;20284;-64
2021/08/26 01:28:51;;;;;;;6.82;6.03;;;18.60;95.40;;;;;;4254270;27;20059;-64
2021/08/26 01:30:55;;;;;;;10.15;6.43;;;18.70;94.90;;;;;;4253854;27;20227;-64
2021/08/26 01:33:00;;;;;;;12.05;6.53;;;18.70;94.70;;;;;;4255133;27;20080;-64
2021/08/26 01:35:04;;;;;;;11.70;7.70;;;18.80;94.70;;;;;;4253747;27;20104;-64
2021/08/26 01:37:07;;;;;;;7.78;6.63;;;18.70;95.10;;;;;;4253921;27;20051;-64
2021/08/26 01:39:12;;;;;;;10.80;6.95;;;18.70;94.60;;;;;;4253064;27;20127;-64
2021/08/26 01:41:15;;;;;;;7.88;6.85;;;18.80;94.00;;;;;;4252959;27;20103;-64
2021/08/26 01:43:19;;;;;;;9.15;6.40;;;18.90;94.30;;;;;;4255361;27;20051;-64
2021/08/26 01:45:22;;;;;;;11.82;7.55;;;19.00;93.40;;;;;;4254502;27;20108;-64
2021/08/26 01:47:25;;;;;;;10.13;7.15;;;19.00;93.80;;;;;;4255061;27;20099;-65
2021/08/26 01:49:28;;;;;;;10.32;8.10;;;18.90;94.20;;;;;;4253703;27;20499;-64
2021/08/26 01:51:32;;;;;;;10.27;8.02;;;19.00;94.20;;;;;;4255293;27;20057;-64
2021/08/26 01:53:35;;;;;;;10.03;7.77;;;19.00;94.20;;;;;;4254462;27;20062;-64
2021/08/26 01:55:39;;;;;;;9.88;7.75;;;18.90;94.10;;;;;;4255057;27;20698;-64
2021/08/26 01:57:42;;;;;;;13.43;8.95;;;18.90;94.20;;;;;;4255272;27;20110;-64
2021/08/26 01:59:47;;;;;;;14.65;8.70;;;18.70;95.00;;;;;;4255271;28;20047;-64
2021/08/26 02:01:49;;;;;;;14.02;9.27;;;18.60;95.30;;;;;;4255098;28;20217;-64
2021/08/26 02:03:53;;;;;;;15.88;10.15;;;18.50;95.60;;;;;;4254761;28;20499;-64
2021/08/26 02:05:56;;;;;;;12.82;10.27;;;18.20;96.30;;;;;;4254859;28;20115;-64
2021/08/26 02:07:59;;;;;;;13.60;10.23;;;18.20;96.50;;;;;;4254528;28;20101;-63
2021/08/26 02:10:03;;;;;;;12.77;10.27;;;18.20;96.60;;;;;;4254857;28;20047;-64
2021/08/26 02:12:06;;;;;;;12.80;9.57;;;18.10;96.50;;;;;;4254802;28;20353;-64
2021/08/26 02:14:09;;;;;;;14.13;10.95;;;18.00;97.00;;;;;;4254665;28;20055;-64
2021/08/26 02:16:17;;;;;;;18.00;10.57;;;17.80;97.40;;;;;;4253886;28;20051;-63
2021/08/26 02:18:20;;;;;;;14.20;10.75;;;17.90;97.50;;;;;;4254191;28;20108;-64
2021/08/26 02:20:24;;;;;;;12.13;9.88;;;17.90;97.30;;;;;;4254808;28;20047;-64
2021/08/26 02:22:27;;;;;;;12.18;10.10;;;17.90;97.30;;;;;;4254832;28;20055;-64
2021/08/26 02:24:30;;;;;;;14.73;10.02;;;18.00;97.00;;;;;;4254924;28;20051;-64
2021/08/26 02:26:33;;;;;;;16.17;9.55;;;18.00;96.60;;;;;;4254768;28;20161;-64
2021/08/26 02:28:36;;;;;;;15.82;10.13;;;18.10;96.60;;;;;;4254362;28;20055;-64
2021/08/26 02:30:39;;;;;;;11.88;10.05;;;18.10;96.90;;;;;;4254695;28;20051;-64
2021/08/26 02:32:44;;;;;;;15.20;9.32;;;18.10;97.00;;;;;;4254838;28;20051;-64
2021/08/26 02:34:47;;;;;;;13.48;9.13;;;18.00;96.90;;;;;;4254374;28;20059;-64
2021/08/26 02:36:50;;;;;;;13.40;8.95;;;18.00;97.00;;;;;;4255096;28;20335;-64
2021/08/26 02:38:53;;;;;;;9.23;7.72;;;18.00;96.90;;;;;;4252550;28;20054;-64
2021/08/26 02:40:56;;;;;;;13.50;8.05;;;18.10;96.50;;;;;;4254774;28;20100;-64
2021/08/26 02:42:59;;;;;;;12.23;7.72;;;18.00;96.90;;;;;;4252789;28;20140;-64
2021/08/26 02:45:02;;;;;;;7.65;6.00;;;18.10;96.50;;;;;;4252812;28;20368;-64
2021/08/26 02:47:05;;;;;;;7.40;6.65;;;18.00;96.50;;;;;;4255106;28;20399;-63
2021/08/26 02:49:10;;;;;;;8.48;6.68;;;18.00;96.80;;;;;;4254880;28;20092;-64
2021/08/26 02:51:13;;;;;;;7.95;5.93;;;17.90;97.00;;;;;;4254290;28;20100;-64
2021/08/26 02:53:16;;;;;;;9.32;6.40;;;18.00;96.20;;;;;;4252471;28;20047;-64
2021/08/26 02:55:19;;;;;;;8.65;6.30;;;17.90;97.10;;;;;;4236605;28;20055;-64
2021/08/26 02:57:22;;;;;;;7.90;5.72;;;17.80;97.20;;;;;;4254107;28;20055;-64
2021/08/26 02:59:25;;;;;;;7.03;5.30;;;17.90;96.50;;;;;;4254768;28;20089;-64
2021/08/26 03:01:28;;;;;;;8.05;6.15;;;18.00;96.00;;;;;;4254295;28;20051;-64
2021/08/26 03:03:31;;;;;;;8.50;6.07;;;18.10;96.30;;;;;;4254084;28;20063;-64
2021/08/26 03:05:36;;;;;;;7.38;5.63;;;18.10;95.70;;;;;;4256633;27;20050;-64
2021/08/26 03:07:39;;;;;;;14.00;6.15;;;18.00;96.50;;;;;;4257721;27;20051;-64
2021/08/26 03:09:42;;;;;;;8.55;5.00;;;17.80;96.90;;;;;;4257714;27;20055;-65
2021/08/26 03:11:45;;;;;;;6.32;4.45;;;17.90;96.40;;;;;;4257450;27;20238;-64
2021/08/26 03:13:48;;;;;;;12.25;5.07;;;18.00;96.00;;;;;;4256064;27;20100;-64
2021/08/26 03:15:51;;;;;;;8.38;4.00;;;18.00;96.20;;;;;;4252846;27;20092;-64
2021/08/26 03:17:54;;;;;;;8.38;4.47;;;18.10;95.40;;;;;;4256295;27;20055;-64
2021/08/26 03:19:57;;;;;;;6.75;4.22;;;18.20;94.90;;;;;;4257633;27;20374;-64
2021/08/26 03:22:02;;;;;;;7.28;4.55;;;18.20;95.30;;;;;;4239125;28;20059;-64
2021/08/26 03:24:05;;;;;;;6.13;4.22;;;18.30;95.50;;;;;;4257264;27;20261;-64
2021/08/26 03:26:08;;;;;;;8.60;4.53;;;18.20;94.80;;;;;;4257479;27;20355;-64
2021/08/26 03:28:11;;;;;;;7.40;4.13;;;18.20;95.10;;;;;;4257432;27;20047;-64
2021/08/26 03:30:14;;;;;;;6.65;3.38;;;18.30;94.90;;;;;;4237772;28;20397;-64
2021/08/26 03:32:17;;;;;;;6.30;3.47;;;18.30;94.40;;;;;;4257176;27;20093;-64
2021/08/26 03:34:20;;;;;;;7.72;4.03;;;18.30;94.90;;;;;;4257415;27;20371;-64
2021/08/26 03:36:26;;;;;;;7.15;3.90;;;18.30;94.70;;;;;;4257276;27;20057;-64
2021/08/26 03:38:30;;;;;;;8.27;4.10;;;18.30;94.40;;;;;;4256987;27;20468;-64
2021/08/26 03:40:33;;;;;;;4.97;4.07;;;18.40;94.30;;;;;;4257182;27;20289;-65
2021/08/26 03:42:36;;;;;;;6.68;3.67;;;18.30;94.50;;;;;;4257218;27;20277;-64
2021/08/26 03:44:39;;;;;;;10.63;4.50;;;18.40;93.90;;;;;;4257307;27;20051;-64
2021/08/26 03:46:42;;;;;;;6.18;3.47;;;18.40;94.20;;;;;;4257454;27;20054;-64
2021/08/26 03:48:45;;;;;;;5.45;3.13;;;18.40;93.70;;;;;;4257268;27;20079;-64
2021/08/26 03:50:48;;;;;;;4.25;3.35;;;18.50;93.40;;;;;;4255861;27;20051;-69
2021/08/26 03:52:51;;;;;;;5.72;3.53;;;18.50;93.60;;;;;;4257265;27;20265;-64
2021/08/26 03:54:56;;;;;;;3.58;3.05;;;18.50;93.30;;;;;;4256918;27;20108;-64
2021/08/26 03:56:59;;;;;;;6.80;3.17;;;18.60;93.10;;;;;;4256781;27;20051;-64
2021/08/26 03:59:01;;;;;;;9.23;4.30;;;18.50;93.00;;;;;;4256771;27;20099;-64
2021/08/26 04:01:05;;;;;;;4.63;4.10;;;18.50;93.40;;;;;;4256552;27;20051;-64
2021/08/26 04:03:08;;;;;;;4.32;3.70;;;18.50;93.70;;;;;;4256797;27;20070;-63
2021/08/26 04:05:11;;;;;;;9.25;3.75;;;18.40;94.10;;;;;;4256713;27;20055;-64
2021/08/26 04:07:15;;;;;;;5.70;4.05;;;18.30;93.90;;;;;;4256456;27;20048;-64
2021/08/26 04:09:18;;;;;;;7.25;3.30;;;18.20;94.60;;;;;;4256815;27;20459;-64
2021/08/26 04:11:22;;;;;;;7.70;4.13;;;18.20;94.60;;;;;;4256587;27;20232;-64
2021/08/26 04:13:25;;;;;;;5.20;3.00;;;18.20;94.50;;;;;;4256540;27;20055;-64
2021/08/26 04:15:28;;;;;;;7.68;3.35;;;18.30;94.30;;;;;;4256102;27;20055;-64
2021/08/26 04:17:31;;;;;;;10.75;2.95;;;18.10;94.90;;;;;;4255635;27;20100;-64
2021/08/26 04:19:34;;;;;;;5.15;2.88;;;18.20;94.50;;;;;;4256442;27;20055;-63
2021/08/26 04:21:37;;;;;;;4.95;3.15;;;18.20;94.30;;;;;;4256515;27;20108;-64
2021/08/26 04:23:40;;;;;;;6.18;2.90;;;18.20;94.30;;;;;;4238128;28;20125;-63
2021/08/26 04:25:43;;;;;;;3.45;2.97;;;18.30;94.10;;;;;;4256353;27;20051;-63
2021/08/26 04:27:48;;;;;;;5.25;3.25;;;18.30;93.80;;;;;;4256333;27;20058;-63
2021/08/26 04:29:51;;;;;;;4.88;2.90;;;18.40;93.80;;;;;;4256650;27;20055;-63
2021/08/26 04:31:54;;;;;;;9.82;3.00;;;18.40;93.60;;;;;;4256422;27;20051;-65
2021/08/26 04:33:57;;;;;;;3.83;2.90;;;18.40;94.30;;;;;;4238058;27;20047;-65
2021/08/26 04:36:00;;;;;;;7.15;3.00;;;18.40;93.90;;;;;;4256337;27;20050;-65
2021/08/26 04:38:03;;;;;;;5.38;2.55;;;18.40;93.70;;;;;;4255728;27;20055;-65
2021/08/26 04:40:07;;;;;;;5.90;2.72;;;18.60;93.30;;;;;;4256103;27;20239;-65
2021/08/26 04:42:10;;;;;;;7.38;3.30;;;18.60;93.30;;;;;;4256124;27;20055;-65
2021/08/26 04:44:14;;;;;;;4.18;3.13;;;18.50;93.40;;;;;;4255994;27;20096;-65
2021/08/26 04:46:17;;;;;;;9.90;3.15;;;18.60;93.20;;;;;;4255973;27;20081;-65
2021/08/26 04:48:20;;;;;;;5.40;3.22;;;18.70;92.90;;;;;;4255991;27;20051;-65
2021/08/26 04:50:23;;;;;;;11.68;3.25;;;18.70;93.30;;;;;;4256157;27;20408;-62
2021/08/26 04:52:26;;;;;;;8.60;2.95;;;18.70;93.00;;;;;;4256167;27;20043;-63
2021/08/26 04:54:29;;;;;;;6.53;3.28;;;18.70;93.30;;;;;;4255810;27;20058;-63
2021/08/26 04:56:32;;;;;;;12.60;3.65;;;18.60;93.60;;;;;;4255679;27;20051;-63
2021/08/26 04:58:35;;;;;;;6.97;3.10;;;18.70;93.30;;;;;;4255870;27;20059;-63
2021/08/26 05:00:39;;;;;;;7.80;3.00;;;18.70;92.80;;;;;;4255793;27;20051;-63
2021/08/26 05:02:42;;;;;;;8.02;3.00;;;18.80;92.60;;;;;;4255365;27;20054;-62
2021/08/26 05:04:45;;;;;;;7.75;3.40;;;18.90;92.50;;;;;;4254127;27;20051;-65
2021/08/26 05:06:48;;;;;;;9.93;2.63;;;18.90;92.40;;;;;;4255867;27;20051;-64
2021/08/26 05:08:51;;;;;;;6.50;3.20;;;18.90;92.20;;;;;;4255711;27;20100;-65
2021/08/26 05:10:54;;;;;;;14.77;3.42;;;19.00;92.30;;;;;;4255948;27;20051;-65
2021/08/26 05:12:57;;;;;;;5.03;2.90;;;19.00;92.50;;;;;;4255842;27;20059;-65
2021/08/26 05:15:01;;;;;;;7.15;2.53;;;19.10;92.20;;;;;;4255546;27;20124;-65
2021/08/26 05:17:05;;;;;;;6.30;2.65;;;19.10;92.20;;;;;;4255614;27;20108;-65
2021/08/26 05:19:08;;;;;;;10.05;3.20;;;19.10;92.10;;;;;;4255543;27;20050;-65
2021/08/26 05:21:11;;;;;;;8.50;3.17;;;19.20;92.20;;;;;;4255585;27;20073;-65
2021/08/26 05:23:14;;;;;;;8.40;2.63;;;19.20;92.20;;;;;;4255379;27;20042;-65
2021/08/26 05:25:17;;;;;;;7.40;2.75;;;19.20;92.10;;;;;;4255524;27;20150;-65
2021/08/26 05:27:20;;;;;;;10.57;2.95;;;19.20;92.00;;;;;;4235441;28;20282;-65
2021/08/26 05:29:23;;;;;;;11.40;3.20;;;19.30;92.10;;;;;;4255447;27;20220;-65
2021/08/26 05:31:26;;;;;;;10.40;3.03;;;19.30;92.30;;;;;;4255289;27;20388;-65
2021/08/26 05:33:31;;;;;;;10.02;3.17;;;19.20;92.40;;;;;;4255515;27;20055;-65
2021/08/26 05:35:34;;;;;;;10.90;3.25;;;19.20;92.40;;;;;;4255322;27;20104;-65
2021/08/26 05:37:37;;;;;;;9.85;3.65;;;19.20;92.50;;;;;;4236830;28;20343;-65
2021/08/26 05:39:40;;;;;;;10.93;3.00;;;19.10;93.10;;;;;;4255397;27;20054;-67
2021/08/26 05:41:44;;;;;;;9.27;2.97;;;18.90;93.30;;;;;;4255581;27;20051;-65
2021/08/26 05:43:47;;;;;;;8.65;2.70;;;19.10;93.10;;;;;;4255452;27;20096;-63
2021/08/26 05:45:50;;;;;;;9.10;2.70;;;19.10;92.70;;;;;;4255108;27;20092;-65
2021/08/26 05:47:56;;;;;;;12.48;2.88;;;19.20;92.60;;;;;;4253490;27;20163;-65
2021/08/26 05:50:00;;;;;;;19.27;3.58;;;19.20;92.60;;;;;;4255227;27;20092;-65
2021/08/26 05:52:03;;;;;;;10.15;2.90;;;19.00;93.80;;;;;;4237023;28;20051;-64
2021/08/26 05:54:07;;;;;;;7.40;3.10;;;19.00;93.70;;;;;;4255218;27;20058;-64
2021/08/26 05:56:10;;;;;;;16.67;3.13;;;19.00;93.40;;;;;;4254319;27;20281;-65
2021/08/26 05:58:13;;;;;;;20.45;2.83;;;19.10;93.40;;;;;;4253115;27;20334;-65
2021/08/26 06:00:16;;;;;;;33.42;4.20;;;19.10;93.20;;;;;;4255492;28;20043;-64
2021/08/26 06:02:20;;;;;;;9.13;3.13;;;19.20;92.90;;;;;;4254249;28;20051;-64
2021/08/26 06:04:23;;;;;;;17.13;3.30;;;19.20;93.20;;;;;;4254704;28;20729;-64
2021/08/26 06:06:28;;;;;;;15.25;3.80;;;19.30;92.60;;;;;;4254959;28;20207;-65
2021/08/26 06:08:31;;;;;;;17.65;3.67;;;19.20;93.20;;;;;;4255046;28;20369;-64
2021/08/26 06:10:38;;;;;;;11.23;2.90;;;19.20;93.40;;;;;;4255041;28;20055;-65
2021/08/26 06:12:42;;;;;;;11.27;3.45;;;19.20;93.00;;;;;;4255036;28;20112;-64
2021/08/26 06:14:45;;;;;;;23.83;3.70;;;19.20;93.00;;;;;;4253356;28;20115;-65
2021/08/26 06:16:48;;;;;;;16.52;3.80;;;19.30;93.00;;;;;;4254610;28;20081;-64
2021/08/26 06:18:51;;;;;;;11.05;3.35;;;19.30;93.30;;;;;;4254752;28;20077;-65
2021/08/26 06:20:54;;;;;;;13.52;3.88;;;19.30;92.80;;;;;;4254896;28;20092;-66
2021/08/26 06:22:58;;;;;;;14.27;3.42;;;19.30;93.20;;;;;;4254741;28;20051;-65
2021/08/26 06:25:01;;;;;;;16.42;3.63;;;19.30;92.90;;;;;;4254775;28;20100;-65
2021/08/26 06:27:04;;;;;;;23.15;4.13;;;19.40;92.70;;;;;;4254702;28;20273;-64
2021/08/26 06:29:07;;;;;;;20.05;3.75;;;19.50;92.60;;;;;;4255003;28;20400;-64
2021/08/26 06:31:10;;;;;;;17.17;3.85;;;19.50;92.40;;;;;;4254644;28;20067;-64
2021/08/26 06:33:13;;;;;;;20.83;3.20;;;19.60;92.60;;;;;;4254916;28;20055;-64
2021/08/26 06:35:16;;;;;;;10.57;3.00;;;19.70;92.40;;;;;;4249828;28;20092;-63
2021/08/26 06:37:21;;;;;;;10.05;3.20;;;19.70;92.50;;;;;;4254943;28;20047;-64
2021/08/26 06:39:25;;;;;;;9.88;2.72;;;19.60;92.60;;;;;;4255337;27;20108;-64
2021/08/26 06:41:28;;;;;;;8.90;2.65;;;19.60;93.10;;;;;;4256235;27;20621;-64
2021/08/26 06:43:31;;;;;;;11.65;3.10;;;19.60;92.70;;;;;;4258063;27;20100;-64
2021/08/26 06:45:34;;;;;;;8.88;3.10;;;19.40;93.80;;;;;;4239774;28;20112;-63
2021/08/26 06:47:37;;;;;;;6.72;2.88;;;19.50;93.50;;;;;;4258325;27;20051;-63
2021/08/26 06:49:40;;;;;;;9.77;3.10;;;19.60;93.30;;;;;;4257944;27;20051;-63
2021/08/26 06:51:43;;;;;;;7.90;3.00;;;19.70;93.40;;;;;;4257600;27;20055;-64
2021/08/26 06:53:46;;;;;;;8.63;3.45;;;19.70;93.30;;;;;;4257752;27;20400;-65
2021/08/26 06:55:51;;;;;;;9.15;3.20;;;19.80;93.30;;;;;;4258000;27;20111;-64
2021/08/26 06:57:54;;;;;;;9.25;3.72;;;19.80;93.50;;;;;;4257944;27;20051;-63
2021/08/26 06:59:57;;;;;;;8.40;3.17;;;19.60;93.90;;;;;;4257250;27;20063;-64
2021/08/26 07:02:00;;;;;;;13.32;3.50;;;19.60;94.10;;;;;;4257438;27;20108;-64
2021/08/26 07:04:03;;;;;;;7.32;3.70;;;19.60;94.20;;;;;;4257915;27;20224;-64
2021/08/26 07:06:06;;;;;;;9.50;3.85;;;19.70;93.90;;;;;;4259027;27;20076;-63
2021/08/26 07:08:09;;;;;;;10.60;3.65;;;19.70;94.10;;;;;;4258314;27;20047;-64
2021/08/26 07:10:12;;;;;;;9.43;3.83;;;19.80;93.90;;;;;;4257774;27;20109;-63
2021/08/26 07:12:16;;;;;;;10.82;3.80;;;19.90;93.80;;;;;;4239966;28;20052;-64
2021/08/26 07:14:19;;;;;;;7.10;3.42;;;19.70;94.20;;;;;;4257697;27;20050;-63
2021/08/26 07:16:22;;;;;;;8.38;4.18;;;19.80;93.80;;;;;;4257573;27;20059;-63
2021/08/26 07:18:25;;;;;;;9.15;3.65;;;20.00;93.50;;;;;;4256229;27;20051;-63
2021/08/26 07:20:28;;;;;;;6.78;3.35;;;20.10;93.30;;;;;;4257346;27;20051;-65
2021/08/26 07:22:31;;;;;;;5.70;3.92;;;20.10;93.30;;;;;;4257591;27;20051;-66
2021/08/26 07:24:34;;;;;;;11.13;4.07;;;20.20;93.20;;;;;;4239286;28;20506;-65
2021/08/26 07:26:37;;;;;;;12.02;4.43;;;20.10;93.50;;;;;;4256557;27;20047;-66
2021/08/26 07:28:42;;;;;;;10.23;4.95;;;20.10;93.40;;;;;;4257653;27;20043;-65
2021/08/26 07:30:45;;;;;;;11.30;4.28;;;20.20;93.30;;;;;;4257483;27;20092;-65
2021/08/26 07:32:48;;;;;;;13.40;4.47;;;20.30;93.00;;;;;;4257431;27;20059;-65
2021/08/26 07:34:51;;;;;;;10.68;4.50;;;20.40;92.80;;;;;;4257028;27;20051;-64
2021/08/26 07:36:54;;;;;;;16.17;5.15;;;20.40;92.70;;;;;;4257271;27;20058;-65
2021/08/26 07:38:57;;;;;;;12.35;4.88;;;20.40;92.90;;;;;;4258082;27;20243;-65
2021/08/26 07:40:59;;;;;;;16.05;5.10;;;20.50;92.80;;;;;;4260795;27;20282;-63
2021/08/26 07:43:03;;;;;;;14.18;5.38;;;20.50;93.10;;;;;;4257285;27;20051;-65
2021/08/26 07:45:08;;;;;;;13.88;5.20;;;20.50;93.00;;;;;;4257294;27;20371;-65
2021/08/26 07:47:11;;;;;;;12.32;5.20;;;20.50;93.10;;;;;;4257108;27;20055;-66
2021/08/26 07:49:14;;;;;;;12.93;5.43;;;20.50;93.10;;;;;;4257016;27;20107;-65
2021/08/26 07:51:17;;;;;;;18.02;6.60;;;20.60;92.90;;;;;;4256764;27;20047;-65
2021/08/26 07:53:20;;;;;;;16.52;6.13;;;20.70;92.70;;;;;;4257131;27;20294;-65
2021/08/26 07:55:23;;;;;;;18.63;7.20;;;20.70;93.00;;;;;;4257063;27;20051;-65
2021/08/26 07:57:26;;;;;;;15.65;6.40;;;20.40;93.50;;;;;;4257072;27;20074;-65
2021/08/26 07:59:29;;;;;;;13.07;6.22;;;20.50;93.40;;;;;;4255697;27;20171;-65
2021/08/26 08:01:33;;;;;;;28.48;6.68;;;20.50;93.40;;;;;;4256848;27;20056;-64
2021/08/26 08:03:37;;;;;;;14.95;6.55;;;20.60;93.30;;;;;;4238587;28;20055;-64
2021/08/26 08:05:40;;;;;;;16.25;7.03;;;20.60;93.20;;;;;;4256573;27;20063;-65
2021/08/26 08:07:45;;;;;;;17.20;6.30;;;20.60;93.20;;;;;;4256604;27;20055;-63
2021/08/26 08:09:48;;;;;;;12.82;6.10;;;20.50;93.40;;;;;;4256615;27;20051;-63
2021/08/26 08:11:51;;;;;;;15.23;5.70;;;20.60;93.30;;;;;;4256662;27;20047;-64
2021/08/26 08:13:54;;;;;;;9.35;6.05;;;20.70;93.00;;;;;;4256445;27;20100;-64
2021/08/26 08:15:57;;;;;;;14.18;6.25;;;20.60;93.50;;;;;;4257174;27;20051;-64
2021/08/26 08:18:02;;;;;;;15.80;5.78;;;20.60;93.40;;;;;;4257201;27;20104;-64
2021/08/26 08:20:06;;;;;;;10.90;5.22;;;20.80;93.20;;;;;;4256737;27;20353;-64
2021/08/26 08:22:09;;;;;;;12.48;5.40;;;20.90;93.10;;;;;;4256832;27;20114;-64
2021/08/26 08:24:12;;;;;;;10.05;4.82;;;20.90;93.00;;;;;;4256560;27;20136;-65
2021/08/26 08:26:15;;;;;;;14.15;5.30;;;20.90;92.90;;;;;;4256784;27;20054;-64
2021/08/26 08:28:18;;;;;;;11.52;5.47;;;21.00;92.90;;;;;;4257433;27;20047;-64
2021/08/26 08:30:26;;;;;;;15.10;4.70;;;20.90;93.10;;;;;;4258510;27;20047;-64
2021/08/26 08:32:29;;;;;;;14.45;4.93;;;21.00;92.90;;;;;;4257468;27;20351;-64
2021/08/26 08:34:33;;;;;;;14.25;5.05;;;21.10;92.70;;;;;;4256927;27;20050;-64
2021/08/26 08:36:37;;;;;;;8.82;4.13;;;21.10;92.70;;;;;;4238125;27;20140;-65
2021/08/26 08:38:40;;;;;;;18.25;5.70;;;21.20;92.70;;;;;;4256425;27;20167;-64
2021/08/26 08:40:46;;;;;;;13.43;5.57;;;21.00;92.90;;;;;;4254230;27;20059;-64
2021/08/26 08:42:49;;;;;;;16.80;5.63;;;21.10;93.00;;;;;;4256243;27;20100;-64
2021/08/26 08:44:52;;;;;;;19.92;5.03;;;21.10;92.90;;;;;;4256227;27;20051;-64
2021/08/26 08:46:59;;;;;;;15.52;5.70;;;21.20;92.70;;;;;;4255377;27;20047;-64
2021/08/26 08:49:04;;;;;;;9.65;4.28;;;21.30;92.70;;;;;;4255928;27;20072;-64
2021/08/26 08:51:10;;;;;;;11.70;4.50;;;21.40;92.40;;;;;;4254953;27;20296;-64
2021/08/26 08:53:14;;;;;;;17.98;4.80;;;21.50;92.50;;;;;;4238273;28;20097;-64
2021/08/26 08:55:17;;;;;;;6.97;4.47;;;21.40;92.70;;;;;;4257256;27;20104;-64
2021/08/26 08:57:20;;;;;;;6.72;4.35;;;21.40;93.10;;;;;;4256705;27;20059;-64
2021/08/26 08:59:23;;;;;;;14.18;4.30;;;21.30;93.70;;;;;;4256175;27;20058;-64
2021/08/26 09:01:26;;;;;;;11.20;4.28;;;21.30;93.90;;;;;;4256394;27;20051;-64
2021/08/26 09:03:30;;;;;;;14.32;6.57;;;21.10;94.50;;;;;;4255359;27;20300;-64
2021/08/26 09:05:54;;;;;;;13.73;5.20;;;21.10;94.80;;;;;;4255826;27;20047;-64
2021/08/26 09:08:09;;;;;;;20.83;11.05;;;21.00;94.90;;;;;;4255718;27;20055;-64
2021/08/26 09:10:13;;;;;;;13.18;4.85;;;21.00;94.90;;;;;;4255894;27;20054;-63
2021/08/26 09:12:16;;;;;;;28.17;4.40;;;20.80;95.40;;;;;;4255496;27;20047;-64
2021/08/26 09:14:22;;;;;;;27.10;9.77;;;20.60;96.00;;;;;;4255560;27;20292;-64
2021/08/26 09:16:36;;;;;;;34.30;4.78;;;20.60;96.10;;;;;;4255780;27;20092;-64
2021/08/26 09:18:39;;;;;;;18.23;4.20;;;20.50;96.30;;;;;;4255743;27;20051;-64
2021/08/26 09:20:54;;;;;;;18.15;5.03;;;20.50;96.60;;;;;;4255617;27;20294;-64
2021/08/26 09:23:04;;;;;;;17.67;3.95;;;20.70;96.20;;;;;;4256481;27;20051;-65
2021/08/26 09:25:12;;;;;;;10.77;3.60;;;20.80;96.00;;;;;;4237722;27;20339;-63
2021/08/26 09:27:36;;;;;;;16.63;3.70;;;20.80;96.00;;;;;;4255316;27;20086;-64
2021/08/26 09:30:00;;;;;;;17.23;3.50;;;20.80;96.10;;;;;;4252593;27;20055;-64
2021/08/26 09:32:15;;;;;;;15.27;4.80;;;21.00;96.00;;;;;;4256107;27;20055;-64
2021/08/26 09:34:19;;;;;;;18.57;3.90;;;21.20;95.60;;;;;;4256842;27;20059;-64
2021/08/26 09:36:25;;;;;;;17.33;4.17;;;21.10;95.60;;;;;;4255976;27;20047;-64
2021/08/26 09:38:28;;;;;;;21.98;5.68;;;21.10;95.70;;;;;;4255306;27;20536;-64
2021/08/26 09:40:42;;;;;;;28.25;12.55;;;21.10;95.80;;;;;;4255404;27;20281;-64
2021/08/26 09:42:54;;;;;;;5.05;3.47;;;21.30;95.70;;;;;;4254191;27;20050;-64
2021/08/26 09:45:15;;;;;;;11.27;3.00;;;21.30;95.40;;;;;;4255370;27;20047;-64
2021/08/26 09:47:17;;;;;;;11.75;3.00;;;21.40;95.30;;;;;;4254291;27;20136;-65
2021/08/26 09:49:22;;;;;;;7.35;3.15;;;21.50;95.00;;;;;;4255305;27;20047;-64
2021/08/26 09:51:25;;;;;;;21.13;3.60;;;21.50;95.00;;;;;;4254267;27;20059;-64
2021/08/26 09:53:33;;;;;;;14.38;3.72;;;21.40;95.40;;;;;;4254768;27;20081;-63
2021/08/26 09:56:02;;;;;;;16.00;2.70;;;21.40;95.50;;;;;;4254059;27;20583;-64
2021/08/26 09:58:13;;;;;;;16.02;3.08;;;21.70;95.20;;;;;;4255137;28;20093;-64
2021/08/26 10:00:28;;;;;;;18.80;2.65;;;21.80;94.80;;;;;;4255191;27;20429;-64
2021/08/26 10:02:32;;;;;;;7.53;2.78;;;22.00;94.80;;;;;;4254525;28;20096;-64
2021/08/26 10:04:35;;;;;;;12.35;5.80;;;22.00;94.60;;;;;;4255496;28;20072;-64
2021/08/26 10:06:38;;;;;;;6.40;1.83;;;22.00;94.30;;;;;;4255764;28;20051;-64
2021/08/26 10:08:42;;;;;;;10.13;2.17;;;22.00;94.20;;;;;;4255606;28;20196;-64
2021/08/26 10:10:45;;;;;;;8.00;1.90;;;22.00;94.40;;;;;;4256598;28;20055;-64
2021/08/26 10:12:49;;;;;;;4.03;1.35;;;22.00;94.40;;;;;;4257234;28;20055;-64
2021/08/26 10:14:53;;;;;;;3.03;1.50;;;22.00;94.10;;;;;;4257842;27;20081;-64
2021/08/26 10:16:56;;;;;;;2.00;1.10;;;22.10;94.10;;;;;;4262476;27;20059;-65
2021/08/26 10:18:59;;;;;;;6.68;1.60;;;22.10;94.10;;;;;;4258494;27;20059;-64
2021/08/26 10:21:06;;;;;;;2.72;1.30;;;22.30;93.90;;;;;;4259358;27;20050;-64
2021/08/26 10:23:10;;;;;;;8.55;5.47;;;22.50;93.60;;;;;;4259144;27;20114;-64
2021/08/26 10:25:13;;;;;;;6.07;2.63;;;22.70;93.40;;;;;;4256967;27;20051;-64
2021/08/26 10:27:20;;;;;;;8.00;5.88;;;22.70;93.20;;;;;;4258465;27;20055;-64
2021/08/26 10:29:25;;;;;;;6.60;2.80;;;22.90;93.30;;;;;;4256503;27;20076;-65
2021/08/26 10:31:29;;;;;;;7.05;3.33;;;23.10;93.10;;;;;;4241192;28;20051;-64
2021/08/26 10:33:33;;;;;;;13.27;7.80;;;23.20;92.70;;;;;;4258880;27;20059;-64
2021/08/26 10:36:00;;;;;;;16.52;10.90;;;23.20;92.80;;;;;;4257693;27;20051;-64
2021/08/26 10:38:18;;;;;;;4.53;2.00;;;23.30;92.10;;;;;;4257837;27;20054;-64
2021/08/26 10:40:33;;;;;;;3.80;1.98;;;23.10;92.00;;;;;;4256581;27;20043;-64
2021/08/26 10:42:41;;;;;;;2.03;1.40;;;23.10;92.60;;;;;;4257234;27;20327;-64
2021/08/26 10:45:07;;;;;;;2.58;1.45;;;22.90;92.20;;;;;;4258664;27;20331;-64